createdAt,value
2022-12-18T00:02:07.364Z,18.03
2022-12-18T00:04:35.305Z,18.40
2022-12-18T00:07:03.154Z,18.50
2022-12-18T00:09:39.846Z,17.23
2022-12-18T00:14:46.926Z,18.60
2022-12-18T00:17:16.139Z,17.63
2022-12-18T00:19:44.041Z,19.07
2022-12-18T00:22:12.021Z,19.10
2022-12-18T00:24:39.920Z,21.10
2022-12-18T00:27:07.921Z,20.90
2022-12-18T00:29:35.925Z,20.63
2022-12-18T00:32:04.105Z,21.40
2022-12-18T00:34:33.371Z,21.37
2022-12-18T00:37:01.293Z,20.97
2022-12-18T00:39:29.301Z,20.90
2022-12-18T00:42:14.467Z,20.43
2022-12-18T00:44:42.544Z,21.10
2022-12-18T00:47:10.456Z,21.63
2022-12-18T00:49:39.735Z,21.20
2022-12-18T00:52:07.502Z,22.80
2022-12-18T00:54:35.430Z,20.87
2022-12-18T00:57:06.206Z,21.73
2022-12-18T00:59:34.181Z,20.43
2022-12-18T01:02:02.033Z,22.23
2022-12-18T01:04:34.693Z,23.07
2022-12-18T01:07:04.011Z,23.60
2022-12-18T01:09:32.930Z,23.23
2022-12-18T01:12:00.839Z,21.43
2022-12-18T01:14:29.006Z,25.30
2022-12-18T01:16:56.761Z,23.53
2022-12-18T01:19:25.600Z,23.50
2022-12-18T01:21:53.421Z,22.27
2022-12-18T01:24:22.759Z,24.53
2022-12-18T01:26:51.048Z,22.97
2022-12-18T01:29:19.057Z,21.97
2022-12-18T01:31:46.946Z,22.73
2022-12-18T01:34:14.786Z,22.27
2022-12-18T01:36:43.302Z,25.23
2022-12-18T01:39:13.679Z,23.90
2022-12-18T01:42:02.375Z,24.40
2022-12-18T01:44:57.958Z,23.70
2022-12-18T01:47:29.390Z,23.47
2022-12-18T01:49:58.876Z,22.37
2022-12-18T01:52:30.213Z,23.57
2022-12-18T01:54:58.648Z,24.43
2022-12-18T01:57:30.041Z,24.07
2022-12-18T02:00:02.480Z,22.13
2022-12-18T02:02:42.190Z,23.37
2022-12-18T02:05:12.187Z,25.33
2022-12-18T02:07:46.522Z,25.53
2022-12-18T02:10:20.469Z,24.00
2022-12-18T02:12:58.520Z,23.60
2022-12-18T02:15:33.776Z,24.50
2022-12-18T02:18:08.489Z,23.37
2022-12-18T02:20:41.985Z,24.87
2022-12-18T02:23:20.894Z,23.20
2022-12-18T02:26:09.666Z,24.50
2022-12-18T02:28:44.258Z,24.87
2022-12-18T02:31:17.797Z,24.90
2022-12-18T02:33:47.183Z,25.10
2022-12-18T02:36:18.303Z,23.70
2022-12-18T02:38:47.959Z,25.10
2022-12-18T02:41:20.418Z,24.10
2022-12-18T02:43:49.574Z,26.47
2022-12-18T02:46:34.277Z,23.80
2022-12-18T02:49:18.327Z,25.57
2022-12-18T02:51:54.672Z,24.30
2022-12-18T02:54:35.797Z,24.70
2022-12-18T02:57:15.346Z,23.33
2022-12-18T02:59:50.571Z,26.70
2022-12-18T03:02:24.210Z,25.80
2022-12-18T03:05:01.455Z,24.17
2022-12-18T03:07:41.266Z,24.00
2022-12-18T03:10:16.522Z,24.67
2022-12-18T03:12:51.954Z,25.47
2022-12-18T03:15:25.418Z,24.50
2022-12-18T03:18:05.409Z,24.83
2022-12-18T03:20:36.319Z,24.40
2022-12-18T03:23:09.155Z,25.87
2022-12-18T03:25:41.785Z,26.20
2022-12-18T03:28:15.064Z,25.80
2022-12-18T03:30:46.712Z,23.57
2022-12-18T03:33:20.636Z,27.10
2022-12-18T03:35:51.155Z,25.30
2022-12-18T03:38:20.612Z,26.27
2022-12-18T03:41:01.464Z,25.00
2022-12-18T03:43:45.821Z,26.70
2022-12-18T03:46:24.510Z,25.80
2022-12-18T03:48:58.290Z,24.87
2022-12-18T03:51:30.550Z,25.57
2022-12-18T03:54:02.176Z,25.93
2022-12-18T03:56:39.296Z,26.47
2022-12-18T03:59:12.105Z,25.10
2022-12-18T04:01:43.923Z,27.70
2022-12-18T04:04:16.686Z,26.00
2022-12-18T04:06:47.885Z,26.00
2022-12-18T04:09:16.806Z,25.40
2022-12-18T04:11:48.309Z,24.27
2022-12-18T04:14:19.120Z,26.00
2022-12-18T04:16:50.916Z,27.20
2022-12-18T04:19:22.714Z,26.00
2022-12-18T04:21:52.329Z,27.00
2022-12-18T04:24:20.391Z,25.63
2022-12-18T04:27:05.031Z,26.53
2022-12-18T04:29:41.913Z,26.67
2022-12-18T04:32:10.296Z,26.30
2022-12-18T04:34:39.137Z,24.97
2022-12-18T04:37:07.057Z,26.50
2022-12-18T04:39:34.917Z,25.47
2022-12-18T04:42:08.198Z,27.40
2022-12-18T04:44:36.223Z,26.33
2022-12-18T04:47:05.768Z,25.90
2022-12-18T04:49:33.572Z,24.60
2022-12-18T04:52:01.416Z,25.67
2022-12-18T04:54:29.988Z,26.13
2022-12-18T04:56:57.900Z,25.80
2022-12-18T04:59:25.739Z,24.17
2022-12-18T05:01:53.554Z,24.60
2022-12-18T05:04:23.282Z,24.20
2022-12-18T05:06:51.199Z,26.03
2022-12-18T05:09:19.052Z,26.40
2022-12-18T05:11:47.644Z,25.30
2022-12-18T05:14:15.410Z,23.90
2022-12-18T05:16:43.282Z,24.90
2022-12-18T05:19:11.913Z,26.10
2022-12-18T05:21:41.420Z,25.50
2022-12-18T05:24:09.390Z,25.30
2022-12-18T05:26:37.298Z,23.83
2022-12-18T05:29:05.193Z,25.10
2022-12-18T05:31:38.868Z,26.67
2022-12-18T05:34:07.639Z,23.53
2022-12-18T05:36:35.412Z,24.77
2022-12-18T05:39:05.059Z,23.73
2022-12-18T05:41:34.019Z,25.30
2022-12-18T05:44:03.255Z,24.43
2022-12-18T05:46:31.462Z,23.20
2022-12-18T05:49:01.482Z,23.17
2022-12-18T05:51:29.824Z,23.70
2022-12-18T05:53:57.658Z,24.40
2022-12-18T05:56:27.057Z,19.43
2022-12-18T05:58:55.790Z,21.70
2022-12-18T06:01:26.211Z,23.07
2022-12-18T06:03:54.422Z,22.70
2022-12-18T06:06:24.791Z,22.30
2022-12-18T06:08:53.154Z,24.63
2022-12-18T06:11:23.408Z,23.70
2022-12-18T06:13:58.238Z,23.30
2022-12-18T06:16:27.521Z,22.87
2022-12-18T06:18:55.508Z,22.67
2022-12-18T06:21:23.427Z,23.23
2022-12-18T06:23:51.260Z,23.67
2022-12-18T06:26:22.138Z,24.47
2022-12-18T06:28:55.523Z,25.97
2022-12-18T06:31:23.435Z,24.17
2022-12-18T06:33:51.464Z,25.60
2022-12-18T06:36:19.411Z,24.93
2022-12-18T06:38:47.304Z,23.30
2022-12-18T06:41:17.546Z,24.30
2022-12-18T06:43:46.111Z,22.57
2022-12-18T06:46:15.412Z,22.90
2022-12-18T06:48:43.579Z,21.73
2022-12-18T06:51:11.369Z,22.80
2022-12-18T06:53:40.106Z,23.93
2022-12-18T06:56:10.913Z,24.10
2022-12-18T06:58:39.703Z,23.50
2022-12-18T07:01:09.920Z,23.43
2022-12-18T07:03:39.882Z,23.23
2022-12-18T07:06:14.281Z,22.50
2022-12-18T07:08:42.144Z,23.60
2022-12-18T07:11:10.053Z,22.27
2022-12-18T07:13:38.283Z,23.40
2022-12-18T07:16:14.410Z,23.97
2022-12-18T07:18:46.832Z,21.37
2022-12-18T07:21:16.735Z,21.73
2022-12-18T07:23:45.790Z,21.80
2022-12-18T07:26:14.953Z,21.87
2022-12-18T07:28:44.140Z,23.13
2022-12-18T07:31:14.310Z,22.70
2022-12-18T07:33:43.062Z,24.00
2022-12-18T07:36:13.368Z,25.33
2022-12-18T07:38:41.532Z,23.10
2022-12-18T07:41:11.729Z,21.47
2022-12-18T07:43:40.934Z,22.27
2022-12-18T07:46:12.751Z,23.17
2022-12-18T07:48:42.197Z,24.13
2022-12-18T07:51:14.382Z,23.63
2022-12-18T07:53:43.689Z,22.83
2022-12-18T07:56:31.116Z,24.00
2022-12-18T07:59:00.115Z,23.47
2022-12-18T08:01:28.671Z,23.00
2022-12-18T08:03:56.744Z,22.53
2022-12-18T08:06:26.022Z,23.47
2022-12-18T08:08:54.848Z,23.40
2022-12-18T08:11:22.932Z,23.67
2022-12-18T08:13:50.824Z,22.60
2022-12-18T08:16:19.674Z,20.07
2022-12-18T08:18:48.650Z,21.93
2022-12-18T08:21:19.189Z,23.97
2022-12-18T08:23:51.805Z,22.63
2022-12-18T08:26:21.002Z,22.70
2022-12-18T08:28:50.157Z,21.87
2022-12-18T08:31:19.492Z,21.70
2022-12-18T08:33:49.908Z,34.73
2022-12-18T08:36:18.132Z,23.23
2022-12-18T08:38:46.054Z,24.33
2022-12-18T08:41:16.937Z,21.50
2022-12-18T08:44:02.598Z,21.00
2022-12-18T08:46:35.951Z,23.50
2022-12-18T08:49:05.095Z,22.13
2022-12-18T08:51:33.301Z,21.20
2022-12-18T08:54:01.180Z,20.80
2022-12-18T08:56:30.944Z,21.80
2022-12-18T08:58:59.437Z,21.27
2022-12-18T09:01:27.749Z,21.70
2022-12-18T09:03:55.751Z,21.37
2022-12-18T09:06:24.578Z,22.30
2022-12-18T09:08:52.417Z,20.70
2022-12-18T09:11:22.955Z,22.50
2022-12-18T09:13:52.870Z,21.97
2022-12-18T09:16:22.035Z,19.50
2022-12-18T09:18:51.867Z,23.30
2022-12-18T09:21:21.558Z,22.50
2022-12-18T09:23:51.968Z,19.73
2022-12-18T09:26:19.842Z,21.43
2022-12-18T09:28:47.986Z,21.10
2022-12-18T09:31:19.784Z,20.30
2022-12-18T09:33:47.692Z,22.10
2022-12-18T09:36:17.918Z,23.00
2022-12-18T09:38:46.493Z,21.20
2022-12-18T09:41:35.845Z,21.50
2022-12-18T09:44:07.528Z,21.27
2022-12-18T09:46:41.441Z,20.33
2022-12-18T09:49:15.446Z,18.60
2022-12-18T09:51:48.309Z,20.47
2022-12-18T09:54:20.608Z,15.70
2022-12-18T09:56:48.957Z,20.27
2022-12-18T09:59:23.123Z,19.47
2022-12-18T10:01:52.585Z,21.00
2022-12-18T10:04:20.695Z,20.13
2022-12-18T10:06:56.508Z,20.40
2022-12-18T10:09:30.754Z,17.73
2022-12-18T10:12:09.490Z,21.03
2022-12-18T10:14:45.373Z,18.77
2022-12-18T10:17:27.575Z,20.60
2022-12-18T10:20:01.511Z,19.10
2022-12-18T10:22:47.931Z,23.93
2022-12-18T10:25:22.575Z,21.77
2022-12-18T10:27:54.687Z,19.80
2022-12-18T10:30:24.945Z,20.67
2022-12-18T10:32:55.169Z,19.00
2022-12-18T10:35:28.126Z,18.67
2022-12-18T10:38:07.521Z,19.07
2022-12-18T10:40:51.507Z,19.77
2022-12-18T10:43:24.057Z,20.50
2022-12-18T10:46:02.748Z,18.47
2022-12-18T10:48:34.038Z,20.13
2022-12-18T10:51:10.913Z,20.20
2022-12-18T10:53:44.534Z,20.73
2022-12-18T10:56:13.014Z,20.50
2022-12-18T10:58:41.822Z,20.13
2022-12-18T11:01:13.210Z,18.57
2022-12-18T11:03:44.575Z,22.13
2022-12-18T11:06:14.800Z,18.53
2022-12-18T11:08:44.345Z,21.03
2022-12-18T11:11:21.493Z,19.33
2022-12-18T11:14:00.024Z,20.60
2022-12-18T11:16:35.388Z,20.00
2022-12-18T11:19:23.615Z,20.60
2022-12-18T11:21:51.624Z,21.43
2022-12-18T11:24:27.047Z,21.30
2022-12-18T11:26:59.702Z,22.10
2022-12-18T11:29:34.572Z,20.47
2022-12-18T11:32:25.937Z,23.10
2022-12-18T11:35:04.079Z,23.50
2022-12-18T11:37:34.841Z,21.87
2022-12-18T11:40:09.088Z,22.43
2022-12-18T11:42:43.463Z,21.30
2022-12-18T11:45:26.995Z,23.03
2022-12-18T11:48:00.974Z,22.63
2022-12-18T11:50:35.903Z,21.50
2022-12-18T11:53:06.375Z,21.90
2022-12-18T11:55:43.434Z,21.07
2022-12-18T11:58:22.466Z,22.47
2022-12-18T12:01:02.308Z,22.10
2022-12-18T12:03:49.664Z,30.37
2022-12-18T12:06:27.346Z,28.30
2022-12-18T12:09:06.282Z,29.60
2022-12-18T12:11:45.152Z,25.53
2022-12-18T12:14:43.013Z,25.20
2022-12-18T12:17:19.384Z,22.50
2022-12-18T12:19:53.588Z,23.33
2022-12-18T12:22:31.113Z,23.30
2022-12-18T12:25:13.491Z,21.60
2022-12-18T12:27:52.215Z,23.37
2022-12-18T12:30:23.078Z,24.63
2022-12-18T12:33:06.877Z,22.53
2022-12-18T12:35:48.784Z,21.63
2022-12-18T12:38:23.041Z,23.67
2022-12-18T12:41:02.489Z,21.80
2022-12-18T12:43:39.148Z,22.83
2022-12-18T12:46:12.885Z,22.90
2022-12-18T12:48:45.455Z,20.70
2022-12-18T12:51:18.398Z,21.73
2022-12-18T12:53:48.198Z,23.10
2022-12-18T12:56:18.924Z,24.17
2022-12-18T12:58:58.329Z,22.17
2022-12-18T13:01:36.047Z,21.80
2022-12-18T13:04:17.708Z,22.30
2022-12-18T13:06:52.380Z,22.07
2022-12-18T13:09:21.985Z,22.87
2022-12-18T13:12:08.188Z,23.47
2022-12-18T13:14:38.914Z,24.20
2022-12-18T13:17:31.153Z,23.73
2022-12-18T13:20:08.996Z,21.00
2022-12-18T13:22:38.986Z,22.07
2022-12-18T13:25:31.390Z,23.37
2022-12-18T13:28:05.367Z,21.60
2022-12-18T13:30:58.136Z,23.07
2022-12-18T13:33:51.086Z,20.97
2022-12-18T13:36:31.268Z,21.33
2022-12-18T13:39:32.707Z,33.17
2022-12-18T13:42:57.251Z,31.93
2022-12-18T13:45:43.762Z,26.17
2022-12-18T13:48:20.319Z,24.87
2022-12-18T13:50:54.018Z,25.33
2022-12-18T13:53:25.739Z,21.90
2022-12-18T13:55:54.026Z,22.27
2022-12-18T13:58:21.788Z,23.07
2022-12-18T14:00:52.362Z,22.20
2022-12-18T14:03:24.069Z,21.40
2022-12-18T14:06:02.852Z,23.13
2022-12-18T14:08:37.912Z,24.20
2022-12-18T14:11:07.892Z,22.07
2022-12-18T14:13:41.353Z,23.53
2022-12-18T14:16:16.297Z,21.37
2022-12-18T14:18:48.507Z,22.60
2022-12-18T14:21:22.818Z,24.23
2022-12-18T14:24:04.300Z,25.00
2022-12-18T14:26:34.223Z,26.43
2022-12-18T14:29:16.331Z,24.50
2022-12-18T14:31:46.603Z,30.27
2022-12-18T14:34:17.908Z,30.23
2022-12-18T14:36:54.840Z,26.03
2022-12-18T14:39:23.185Z,31.83
2022-12-18T14:41:51.873Z,27.00
2022-12-18T14:44:19.703Z,23.20
2022-12-18T14:46:50.014Z,20.60
2022-12-18T14:49:24.634Z,22.33
2022-12-18T14:51:55.128Z,23.70
2022-12-18T14:54:25.338Z,22.70
2022-12-18T14:56:58.689Z,23.10
2022-12-18T14:59:28.191Z,22.37
2022-12-18T15:02:06.032Z,27.23
2022-12-18T15:04:36.552Z,28.03
2022-12-18T15:07:08.068Z,25.07
2022-12-18T15:09:36.036Z,27.27
2022-12-18T15:12:04.576Z,24.17
2022-12-18T15:14:40.348Z,22.70
2022-12-18T15:17:19.631Z,23.50
2022-12-18T15:19:49.667Z,26.30
2022-12-18T15:22:27.576Z,24.40
2022-12-18T15:24:56.578Z,25.53
2022-12-18T15:27:28.254Z,25.20
2022-12-18T15:30:19.020Z,26.40
2022-12-18T15:32:48.691Z,26.37
2022-12-18T15:35:20.217Z,28.17
2022-12-18T15:37:48.356Z,26.07
2022-12-18T15:40:17.880Z,34.90
2022-12-18T15:43:05.185Z,47.17
2022-12-18T15:45:33.146Z,30.40
2022-12-18T15:48:02.494Z,26.80
2022-12-18T15:50:30.477Z,29.40
2022-12-18T15:52:58.892Z,26.80
2022-12-18T15:55:44.097Z,26.67
2022-12-18T15:58:12.911Z,26.60
2022-12-18T16:00:42.539Z,29.13
2022-12-18T16:03:12.181Z,29.70
2022-12-18T16:05:40.290Z,26.47
2022-12-18T16:08:08.129Z,29.30
2022-12-18T16:10:37.065Z,28.77
2022-12-18T16:13:04.902Z,27.90
2022-12-18T16:15:32.698Z,28.27
2022-12-18T16:18:00.504Z,27.80
2022-12-18T16:20:29.647Z,27.50
2022-12-18T16:22:57.431Z,27.40
2022-12-18T16:25:28.076Z,29.57
2022-12-18T16:27:57.197Z,29.20
2022-12-18T16:30:28.569Z,29.50
2022-12-18T16:32:59.871Z,30.20
2022-12-18T16:35:29.124Z,29.73
2022-12-18T16:37:57.116Z,30.60
2022-12-18T16:40:25.637Z,35.77
2022-12-18T16:42:53.548Z,37.27
2022-12-18T16:45:21.485Z,37.33
2022-12-18T16:47:50.342Z,35.37
2022-12-18T16:50:18.264Z,35.10
2022-12-18T16:52:47.428Z,33.30
2022-12-18T16:55:15.336Z,31.13
2022-12-18T16:57:43.188Z,30.13
2022-12-18T17:00:12.603Z,28.83
2022-12-18T17:02:40.767Z,26.53
2022-12-18T17:05:09.075Z,27.90
2022-12-18T17:07:37.034Z,28.70
2022-12-18T17:10:07.524Z,27.27
2022-12-18T17:12:35.774Z,26.17
2022-12-18T17:15:03.872Z,27.70
2022-12-18T17:17:31.703Z,25.27
2022-12-18T17:19:59.663Z,28.80
2022-12-18T17:22:28.046Z,28.33
2022-12-18T17:24:55.959Z,29.03
2022-12-18T17:27:25.151Z,27.20
2022-12-18T17:29:52.954Z,28.90
2022-12-18T17:32:20.771Z,28.90
2022-12-18T17:34:48.726Z,27.67
2022-12-18T17:37:16.823Z,28.50
2022-12-18T17:39:44.656Z,30.50
2022-12-18T17:42:15.288Z,28.33
2022-12-18T17:44:45.760Z,29.37
2022-12-18T17:47:14.132Z,28.80
2022-12-18T17:49:42.027Z,30.00
2022-12-18T17:52:10.350Z,30.50
2022-12-18T17:54:39.743Z,31.60
2022-12-18T17:57:07.820Z,32.47
2022-12-18T17:59:35.774Z,33.23
2022-12-18T18:02:05.142Z,38.50
2022-12-18T18:04:33.140Z,35.57
2022-12-18T18:07:00.973Z,36.60
2022-12-18T18:09:28.977Z,45.67
2022-12-18T18:12:14.979Z,57.53
2022-12-18T18:14:42.937Z,138.87
2022-12-18T18:17:12.719Z,66.43
2022-12-18T18:19:42.069Z,45.23
2022-12-18T18:22:11.785Z,40.87
2022-12-18T18:24:39.817Z,40.23
2022-12-18T18:27:07.696Z,39.87
2022-12-18T18:29:36.402Z,36.07
2022-12-18T18:32:04.877Z,38.70
2022-12-18T18:34:34.238Z,38.10
2022-12-18T18:37:02.996Z,40.53
2022-12-18T18:39:31.358Z,43.17
2022-12-18T18:42:00.887Z,42.00
2022-12-18T18:44:30.572Z,44.57
2022-12-18T18:46:59.367Z,51.17
2022-12-18T18:49:28.511Z,51.07
2022-12-18T18:51:59.185Z,47.40
2022-12-18T18:54:27.579Z,45.03
2022-12-18T18:57:19.376Z,46.87
2022-12-18T18:59:43.421Z,47.63
2022-12-18T19:02:13.578Z,47.20
2022-12-18T19:04:46.047Z,44.50
2022-12-18T19:07:18.554Z,46.10
2022-12-18T19:09:58.143Z,44.10
2022-12-18T19:12:50.825Z,42.53
2022-12-18T19:15:18.661Z,44.67
2022-12-18T19:17:47.097Z,37.13
2022-12-18T19:20:15.743Z,38.30
2022-12-18T19:22:49.705Z,38.93
2022-12-18T19:25:37.564Z,39.77
2022-12-18T19:28:18.214Z,39.57
2022-12-18T19:30:55.359Z,38.97
2022-12-18T19:33:44.646Z,32.40
2022-12-18T19:36:15.535Z,31.17
2022-12-18T19:38:45.573Z,31.77
2022-12-18T19:41:15.214Z,31.33
2022-12-18T19:43:43.412Z,31.03
2022-12-18T19:46:15.168Z,33.43
2022-12-18T19:48:45.063Z,36.07
2022-12-18T19:51:16.575Z,34.93
2022-12-18T19:53:46.602Z,35.60
2022-12-18T19:56:16.187Z,34.67
2022-12-18T19:58:45.149Z,33.10
2022-12-18T20:01:13.542Z,35.40
2022-12-18T20:03:46.965Z,32.70
2022-12-18T20:06:24.729Z,32.70
2022-12-18T20:08:57.989Z,30.30
2022-12-18T20:11:28.966Z,30.10
2022-12-18T20:13:57.214Z,30.87
2022-12-18T20:16:25.622Z,32.47
2022-12-18T20:18:53.648Z,33.60
2022-12-18T20:21:21.740Z,32.83
2022-12-18T20:23:49.628Z,32.50
2022-12-18T20:26:19.315Z,34.07
2022-12-18T20:28:47.282Z,35.33
2022-12-18T20:31:15.337Z,37.50
2022-12-18T20:33:44.575Z,37.60
2022-12-18T20:36:20.155Z,39.10
2022-12-18T20:38:51.528Z,38.37
2022-12-18T20:41:24.377Z,39.53
2022-12-18T20:43:52.348Z,39.27
2022-12-18T20:46:20.494Z,41.07
2022-12-18T20:48:48.746Z,36.60
2022-12-18T20:51:18.837Z,40.53
2022-12-18T20:53:47.770Z,38.87
2022-12-18T20:56:20.828Z,38.10
2022-12-18T20:58:53.664Z,39.40
2022-12-18T21:01:24.886Z,37.43
2022-12-18T21:03:53.530Z,37.50
2022-12-18T21:06:23.600Z,48.33
2022-12-18T21:08:51.596Z,41.20
2022-12-18T21:11:45.564Z,40.97
2022-12-18T21:14:17.797Z,35.40
2022-12-18T21:16:46.626Z,37.67
2022-12-18T21:19:18.746Z,38.27
2022-12-18T21:21:47.629Z,36.30
2022-12-18T21:24:16.361Z,40.37
2022-12-18T21:26:46.319Z,37.47
2022-12-18T21:29:17.811Z,38.30
2022-12-18T21:31:46.370Z,36.80
2022-12-18T21:34:17.005Z,36.07
2022-12-18T21:36:45.025Z,36.77
2022-12-18T21:39:14.434Z,37.03
2022-12-18T21:41:59.955Z,36.43
2022-12-18T21:44:29.546Z,37.40
2022-12-18T21:47:04.582Z,38.63
2022-12-18T21:49:37.374Z,37.70
2022-12-18T21:52:05.610Z,38.73
2022-12-18T21:54:33.517Z,34.17
2022-12-18T21:57:03.030Z,33.67
2022-12-18T21:59:34.719Z,32.20
2022-12-18T22:02:05.058Z,35.40
2022-12-18T22:04:33.183Z,33.57
2022-12-18T22:07:02.580Z,33.43
2022-12-18T22:09:30.448Z,33.97
2022-12-18T22:11:59.068Z,35.20
2022-12-18T22:14:27.188Z,34.43
2022-12-18T22:16:57.500Z,32.80
2022-12-18T22:19:26.584Z,30.63
2022-12-18T22:21:55.267Z,32.93
2022-12-18T22:24:26.233Z,33.23
2022-12-18T22:27:01.782Z,33.80
2022-12-18T22:29:44.069Z,30.70
2022-12-18T22:32:17.820Z,29.60
2022-12-18T22:35:04.882Z,30.33
2022-12-18T22:37:34.054Z,30.97
2022-12-18T22:40:03.075Z,31.73
2022-12-18T22:42:32.534Z,32.43
2022-12-18T22:45:00.671Z,29.70
2022-12-18T22:47:30.813Z,29.33
2022-12-18T22:49:59.396Z,30.93
2022-12-18T22:52:27.243Z,31.10
2022-12-18T22:54:55.302Z,31.93
2022-12-18T22:57:23.784Z,30.60
2022-12-18T22:59:52.166Z,30.70
2022-12-18T23:02:20.790Z,29.60
2022-12-18T23:04:50.161Z,33.37
2022-12-18T23:07:18.143Z,30.50
2022-12-18T23:09:46.118Z,31.83
2022-12-18T23:12:17.816Z,29.93
2022-12-18T23:14:47.199Z,29.10
2022-12-18T23:17:15.199Z,31.50
2022-12-18T23:19:48.779Z,31.53
2022-12-18T23:22:18.642Z,30.63
2022-12-18T23:24:47.425Z,29.13
2022-12-18T23:27:15.354Z,28.90
2022-12-18T23:29:43.437Z,29.70
2022-12-18T23:32:13.540Z,31.40
2022-12-18T23:34:41.490Z,27.30
2022-12-18T23:37:09.505Z,27.80
2022-12-18T23:39:38.847Z,28.47
2022-12-18T23:42:06.948Z,27.50
2022-12-18T23:44:35.021Z,29.60
2022-12-18T23:47:04.559Z,28.00
2022-12-18T23:49:32.668Z,29.13
2022-12-18T23:52:00.599Z,26.70
2022-12-18T23:54:32.878Z,26.73
2022-12-18T23:57:02.790Z,29.43
2022-12-18T23:59:30.734Z,27.87
